sensor_id;sensor_type;location;lat;lon;timestamp;P1;durP1;ratioP1;P2;durP2;ratioP2
5279;SDS011;2663;53.588;10.010;2023-03-01T00:00:07;14.00;;;5.87;;
5279;SDS011;2663;53.588;10.010;2023-03-01T00:02:34;14.07;;;6.60;;
5279;SDS011;2663;53.588;10.010;2023-03-01T00:05:01;13.30;;;5.77;;
5279;SDS011;2663;53.588;10.010;2023-03-01T00:07:28;16.03;;;7.00;;
5279;SDS011;2663;53.588;10.010;2023-03-01T00:09:55;46.07;;;20.23;;
5279;SDS011;2663;53.588;10.010;2023-03-01T00:12:22;11.97;;;6.20;;
5279;SDS011;2663;53.588;10.010;2023-03-01T00:14:48;12.70;;;6.90;;
5279;SDS011;2663;53.588;10.010;2023-03-01T00:17:15;12.17;;;6.67;;
5279;SDS011;2663;53.588;10.010;2023-03-01T00:19:42;16.60;;;6.90;;
5279;SDS011;2663;53.588;10.010;2023-03-01T00:22:08;13.57;;;6.63;;
5279;SDS011;2663;53.588;10.010;2023-03-01T00:24:35;11.93;;;6.20;;
5279;SDS011;2663;53.588;10.010;2023-03-01T00:27:02;15.97;;;7.43;;
5279;SDS011;2663;53.588;10.010;2023-03-01T00:29:28;11.90;;;6.37;;
5279;SDS011;2663;53.588;10.010;2023-03-01T00:31:55;14.13;;;6.70;;
5279;SDS011;2663;53.588;10.010;2023-03-01T00:34:22;9.70;;;5.80;;
5279;SDS011;2663;53.588;10.010;2023-03-01T00:36:48;14.90;;;6.40;;
5279;SDS011;2663;53.588;10.010;2023-03-01T00:39:15;9.40;;;5.43;;
5279;SDS011;2663;53.588;10.010;2023-03-01T00:41:42;9.67;;;6.33;;
5279;SDS011;2663;53.588;10.010;2023-03-01T00:44:09;9.40;;;5.70;;
5279;SDS011;2663;53.588;10.010;2023-03-01T00:46:36;16.47;;;6.37;;
5279;SDS011;2663;53.588;10.010;2023-03-01T00:49:04;11.17;;;5.80;;
5279;SDS011;2663;53.588;10.010;2023-03-01T00:51:31;14.30;;;6.83;;
5279;SDS011;2663;53.588;10.010;2023-03-01T00:53:59;13.30;;;6.33;;
5279;SDS011;2663;53.588;10.010;2023-03-01T00:56:28;8.67;;;5.23;;
5279;SDS011;2663;53.588;10.010;2023-03-01T00:58:55;10.20;;;5.30;;
5279;SDS011;2663;53.588;10.010;2023-03-01T01:01:23;14.90;;;6.17;;
5279;SDS011;2663;53.588;10.010;2023-03-01T01:03:54;9.37;;;5.03;;
5279;SDS011;2663;53.588;10.010;2023-03-01T01:06:32;11.10;;;5.23;;
5279;SDS011;2663;53.588;10.010;2023-03-01T01:09:00;10.67;;;5.00;;
5279;SDS011;2663;53.588;10.010;2023-03-01T01:11:28;11.40;;;5.63;;
5279;SDS011;2663;53.588;10.010;2023-03-01T01:13:55;10.63;;;5.40;;
5279;SDS011;2663;53.588;10.010;2023-03-01T01:16:23;13.43;;;5.70;;
5279;SDS011;2663;53.588;10.010;2023-03-01T01:18:51;11.13;;;5.00;;
5279;SDS011;2663;53.588;10.010;2023-03-01T01:21:19;9.53;;;5.30;;
5279;SDS011;2663;53.588;10.010;2023-03-01T01:23:47;9.90;;;5.37;;
5279;SDS011;2663;53.588;10.010;2023-03-01T01:26:18;12.40;;;6.23;;
5279;SDS011;2663;53.588;10.010;2023-03-01T01:28:47;10.57;;;5.67;;
5279;SDS011;2663;53.588;10.010;2023-03-01T01:31:14;16.27;;;6.30;;
5279;SDS011;2663;53.588;10.010;2023-03-01T01:33:41;10.00;;;4.67;;
5279;SDS011;2663;53.588;10.010;2023-03-01T01:36:08;9.83;;;5.50;;
5279;SDS011;2663;53.588;10.010;2023-03-01T01:38:35;8.30;;;4.73;;
5279;SDS011;2663;53.588;10.010;2023-03-01T01:41:04;7.23;;;5.50;;
5279;SDS011;2663;53.588;10.010;2023-03-01T01:43:36;6.83;;;5.23;;
5279;SDS011;2663;53.588;10.010;2023-03-01T01:48:52;13.50;;;6.03;;
5279;SDS011;2663;53.588;10.010;2023-03-01T01:51:27;10.63;;;4.83;;
5279;SDS011;2663;53.588;10.010;2023-03-01T01:54:23;14.03;;;5.60;;
5279;SDS011;2663;53.588;10.010;2023-03-01T01:56:56;12.13;;;5.70;;
5279;SDS011;2663;53.588;10.010;2023-03-01T01:59:28;12.53;;;5.90;;
5279;SDS011;2663;53.588;10.010;2023-03-01T02:01:59;8.47;;;4.67;;
5279;SDS011;2663;53.588;10.010;2023-03-01T02:04:28;7.00;;;4.30;;
5279;SDS011;2663;53.588;10.010;2023-03-01T02:07:07;11.10;;;5.10;;
5279;SDS011;2663;53.588;10.010;2023-03-01T02:09:38;8.80;;;5.20;;
5279;SDS011;2663;53.588;10.010;2023-03-01T02:12:05;8.60;;;5.30;;
5279;SDS011;2663;53.588;10.010;2023-03-01T02:14:33;12.13;;;5.40;;
5279;SDS011;2663;53.588;10.010;2023-03-01T02:16:59;11.97;;;5.63;;
5279;SDS011;2663;53.588;10.010;2023-03-01T02:19:31;10.63;;;5.30;;
5279;SDS011;2663;53.588;10.010;2023-03-01T02:24:53;10.73;;;5.33;;
5279;SDS011;2663;53.588;10.010;2023-03-01T02:28:24;8.40;;;4.60;;
5279;SDS011;2663;53.588;10.010;2023-03-01T02:30:32;10.63;;;3.90;;
5279;SDS011;2663;53.588;10.010;2023-03-01T02:33:00;6.40;;;4.40;;
5279;SDS011;2663;53.588;10.010;2023-03-01T02:35:31;7.87;;;4.80;;
5279;SDS011;2663;53.588;10.010;2023-03-01T02:38:06;8.63;;;5.23;;
5279;SDS011;2663;53.588;10.010;2023-03-01T02:40:34;9.00;;;4.27;;
5279;SDS011;2663;53.588;10.010;2023-03-01T02:43:03;5.87;;;4.40;;
5279;SDS011;2663;53.588;10.010;2023-03-01T02:45:34;12.27;;;3.77;;
5279;SDS011;2663;53.588;10.010;2023-03-01T02:48:01;13.50;;;4.80;;
5279;SDS011;2663;53.588;10.010;2023-03-01T02:53:01;8.33;;;5.00;;
5279;SDS011;2663;53.588;10.010;2023-03-01T02:55:37;8.90;;;4.00;;
5279;SDS011;2663;53.588;10.010;2023-03-01T02:58:04;5.90;;;3.63;;
5279;SDS011;2663;53.588;10.010;2023-03-01T03:00:33;9.30;;;4.63;;
5279;SDS011;2663;53.588;10.010;2023-03-01T03:03:06;8.40;;;4.63;;
5279;SDS011;2663;53.588;10.010;2023-03-01T03:05:33;8.10;;;4.10;;
5279;SDS011;2663;53.588;10.010;2023-03-01T03:08:01;6.77;;;4.20;;
5279;SDS011;2663;53.588;10.010;2023-03-01T03:10:33;6.50;;;3.90;;
5279;SDS011;2663;53.588;10.010;2023-03-01T03:13:03;7.10;;;4.33;;
5279;SDS011;2663;53.588;10.010;2023-03-01T03:15:35;8.07;;;4.10;;
5279;SDS011;2663;53.588;10.010;2023-03-01T03:18:03;6.93;;;4.07;;
5279;SDS011;2663;53.588;10.010;2023-03-01T03:20:32;7.87;;;4.37;;
5279;SDS011;2663;53.588;10.010;2023-03-01T03:22:59;7.27;;;4.50;;
5279;SDS011;2663;53.588;10.010;2023-03-01T03:25:26;14.77;;;5.10;;
5279;SDS011;2663;53.588;10.010;2023-03-01T03:27:54;9.50;;;4.00;;
5279;SDS011;2663;53.588;10.010;2023-03-01T03:30:25;9.40;;;3.97;;
5279;SDS011;2663;53.588;10.010;2023-03-01T03:32:54;6.43;;;4.17;;
5279;SDS011;2663;53.588;10.010;2023-03-01T03:35:28;6.13;;;4.27;;
5279;SDS011;2663;53.588;10.010;2023-03-01T03:37:57;7.83;;;4.30;;
5279;SDS011;2663;53.588;10.010;2023-03-01T03:40:33;9.47;;;4.07;;
5279;SDS011;2663;53.588;10.010;2023-03-01T03:43:02;9.10;;;3.97;;
5279;SDS011;2663;53.588;10.010;2023-03-01T03:45:49;8.30;;;4.23;;
5279;SDS011;2663;53.588;10.010;2023-03-01T03:48:17;5.23;;;3.43;;
5279;SDS011;2663;53.588;10.010;2023-03-01T03:50:48;6.50;;;3.80;;
5279;SDS011;2663;53.588;10.010;2023-03-01T03:53:17;4.90;;;3.07;;
5279;SDS011;2663;53.588;10.010;2023-03-01T03:55:45;8.67;;;3.83;;
5279;SDS011;2663;53.588;10.010;2023-03-01T03:58:15;6.73;;;4.27;;
5279;SDS011;2663;53.588;10.010;2023-03-01T04:00:46;8.93;;;4.10;;
5279;SDS011;2663;53.588;10.010;2023-03-01T04:03:15;7.27;;;4.10;;
5279;SDS011;2663;53.588;10.010;2023-03-01T04:05:45;11.30;;;3.93;;
5279;SDS011;2663;53.588;10.010;2023-03-01T04:08:13;9.63;;;3.90;;
5279;SDS011;2663;53.588;10.010;2023-03-01T04:10:41;5.07;;;3.23;;
5279;SDS011;2663;53.588;10.010;2023-03-01T04:13:13;8.80;;;3.97;;
5279;SDS011;2663;53.588;10.010;2023-03-01T04:15:42;5.07;;;3.33;;
5279;SDS011;2663;53.588;10.010;2023-03-01T04:18:11;4.43;;;3.00;;
5279;SDS011;2663;53.588;10.010;2023-03-01T04:20:39;9.20;;;3.60;;
5279;SDS011;2663;53.588;10.010;2023-03-01T04:23:07;5.03;;;3.23;;
5279;SDS011;2663;53.588;10.010;2023-03-01T04:26:02;5.73;;;3.60;;
5279;SDS011;2663;53.588;10.010;2023-03-01T04:31:02;3.80;;;2.83;;
5279;SDS011;2663;53.588;10.010;2023-03-01T04:33:40;4.67;;;3.40;;
5279;SDS011;2663;53.588;10.010;2023-03-01T04:36:21;6.70;;;3.50;;
5279;SDS011;2663;53.588;10.010;2023-03-01T04:38:51;5.30;;;3.50;;
5279;SDS011;2663;53.588;10.010;2023-03-01T04:41:18;4.33;;;3.93;;
5279;SDS011;2663;53.588;10.010;2023-03-01T04:43:46;3.97;;;3.30;;
5279;SDS011;2663;53.588;10.010;2023-03-01T04:46:15;6.77;;;3.20;;
5279;SDS011;2663;53.588;10.010;2023-03-01T04:48:46;3.80;;;3.40;;
5279;SDS011;2663;53.588;10.010;2023-03-01T04:51:14;4.10;;;3.33;;
5279;SDS011;2663;53.588;10.010;2023-03-01T04:53:41;4.57;;;2.87;;
5279;SDS011;2663;53.588;10.010;2023-03-01T04:56:09;6.53;;;2.80;;
5279;SDS011;2663;53.588;10.010;2023-03-01T04:58:35;4.30;;;2.90;;
5279;SDS011;2663;53.588;10.010;2023-03-01T05:01:07;8.60;;;3.90;;
5279;SDS011;2663;53.588;10.010;2023-03-01T05:03:42;6.77;;;3.20;;
5279;SDS011;2663;53.588;10.010;2023-03-01T05:06:10;3.83;;;3.20;;
5279;SDS011;2663;53.588;10.010;2023-03-01T05:08:38;7.90;;;3.27;;
5279;SDS011;2663;53.588;10.010;2023-03-01T05:11:05;7.37;;;3.90;;
5279;SDS011;2663;53.588;10.010;2023-03-01T05:13:38;3.63;;;2.90;;
5279;SDS011;2663;53.588;10.010;2023-03-01T05:16:06;3.50;;;3.20;;
5279;SDS011;2663;53.588;10.010;2023-03-01T05:18:37;8.40;;;3.20;;
5279;SDS011;2663;53.588;10.010;2023-03-01T05:21:05;6.47;;;2.87;;
5279;SDS011;2663;53.588;10.010;2023-03-01T05:23:34;4.40;;;3.27;;
5279;SDS011;2663;53.588;10.010;2023-03-01T05:26:02;6.37;;;3.53;;
5279;SDS011;2663;53.588;10.010;2023-03-01T05:28:36;8.43;;;3.90;;
5279;SDS011;2663;53.588;10.010;2023-03-01T05:31:04;6.10;;;4.30;;
5279;SDS011;2663;53.588;10.010;2023-03-01T05:33:39;6.00;;;4.30;;
5279;SDS011;2663;53.588;10.010;2023-03-01T05:36:07;11.70;;;5.23;;
5279;SDS011;2663;53.588;10.010;2023-03-01T05:38:35;6.83;;;4.50;;
5279;SDS011;2663;53.588;10.010;2023-03-01T05:41:02;8.93;;;4.13;;
5279;SDS011;2663;53.588;10.010;2023-03-01T05:43:30;6.37;;;3.87;;
5279;SDS011;2663;53.588;10.010;2023-03-01T05:46:00;11.30;;;5.90;;
5279;SDS011;2663;53.588;10.010;2023-03-01T05:48:27;11.67;;;5.10;;
5279;SDS011;2663;53.588;10.010;2023-03-01T05:50:53;9.20;;;5.53;;
5279;SDS011;2663;53.588;10.010;2023-03-01T05:53:20;10.80;;;6.30;;
5279;SDS011;2663;53.588;10.010;2023-03-01T05:55:47;11.07;;;6.17;;
5279;SDS011;2663;53.588;10.010;2023-03-01T05:58:16;9.67;;;5.40;;
5279;SDS011;2663;53.588;10.010;2023-03-01T06:00:46;18.83;;;5.40;;
5279;SDS011;2663;53.588;10.010;2023-03-01T06:03:14;10.60;;;5.60;;
5279;SDS011;2663;53.588;10.010;2023-03-01T06:05:42;10.43;;;5.03;;
5279;SDS011;2663;53.588;10.010;2023-03-01T06:08:10;8.67;;;5.60;;
5279;SDS011;2663;53.588;10.010;2023-03-01T06:10:38;9.00;;;4.97;;
5279;SDS011;2663;53.588;10.010;2023-03-01T06:13:05;8.43;;;5.73;;
5279;SDS011;2663;53.588;10.010;2023-03-01T06:15:31;14.97;;;5.83;;
5279;SDS011;2663;53.588;10.010;2023-03-01T06:17:58;5.90;;;4.40;;
5279;SDS011;2663;53.588;10.010;2023-03-01T06:20:26;11.40;;;5.33;;
5279;SDS011;2663;53.588;10.010;2023-03-01T06:22:54;9.93;;;5.17;;
5279;SDS011;2663;53.588;10.010;2023-03-01T06:25:21;9.93;;;5.67;;
5279;SDS011;2663;53.588;10.010;2023-03-01T06:27:49;6.10;;;3.70;;
5279;SDS011;2663;53.588;10.010;2023-03-01T06:30:18;6.07;;;4.20;;
5279;SDS011;2663;53.588;10.010;2023-03-01T06:32:46;13.03;;;4.27;;
5279;SDS011;2663;53.588;10.010;2023-03-01T06:35:14;7.53;;;3.77;;
5279;SDS011;2663;53.588;10.010;2023-03-01T06:37:44;7.63;;;4.40;;
5279;SDS011;2663;53.588;10.010;2023-03-01T06:40:11;7.50;;;4.17;;
5279;SDS011;2663;53.588;10.010;2023-03-01T06:42:40;6.10;;;3.37;;
5279;SDS011;2663;53.588;10.010;2023-03-01T06:45:08;5.10;;;3.77;;
5279;SDS011;2663;53.588;10.010;2023-03-01T06:47:35;7.37;;;3.57;;
5279;SDS011;2663;53.588;10.010;2023-03-01T06:50:02;5.30;;;3.70;;
5279;SDS011;2663;53.588;10.010;2023-03-01T06:52:30;6.17;;;4.13;;
5279;SDS011;2663;53.588;10.010;2023-03-01T06:54:57;15.60;;;4.53;;
5279;SDS011;2663;53.588;10.010;2023-03-01T06:57:24;8.90;;;3.60;;
5279;SDS011;2663;53.588;10.010;2023-03-01T06:59:50;9.57;;;3.77;;
5279;SDS011;2663;53.588;10.010;2023-03-01T07:02:17;13.20;;;3.53;;
5279;SDS011;2663;53.588;10.010;2023-03-01T07:04:44;6.30;;;3.57;;
5279;SDS011;2663;53.588;10.010;2023-03-01T07:07:11;5.20;;;3.77;;
5279;SDS011;2663;53.588;10.010;2023-03-01T07:09:37;8.57;;;3.97;;
5279;SDS011;2663;53.588;10.010;2023-03-01T07:12:04;7.60;;;4.50;;
5279;SDS011;2663;53.588;10.010;2023-03-01T07:14:31;5.63;;;3.90;;
5279;SDS011;2663;53.588;10.010;2023-03-01T07:16:58;7.33;;;4.10;;
5279;SDS011;2663;53.588;10.010;2023-03-01T07:19:24;9.93;;;3.93;;
5279;SDS011;2663;53.588;10.010;2023-03-01T07:21:51;11.50;;;4.27;;
5279;SDS011;2663;53.588;10.010;2023-03-01T07:24:18;12.17;;;4.83;;
5279;SDS011;2663;53.588;10.010;2023-03-01T07:26:47;8.13;;;5.10;;
5279;SDS011;2663;53.588;10.010;2023-03-01T07:29:17;9.33;;;5.90;;
5279;SDS011;2663;53.588;10.010;2023-03-01T07:31:44;9.47;;;6.07;;
5279;SDS011;2663;53.588;10.010;2023-03-01T07:34:11;12.83;;;5.63;;
5279;SDS011;2663;53.588;10.010;2023-03-01T07:36:38;11.13;;;6.10;;
5279;SDS011;2663;53.588;10.010;2023-03-01T07:39:05;10.20;;;5.30;;
5279;SDS011;2663;53.588;10.010;2023-03-01T07:41:32;11.23;;;5.77;;
5279;SDS011;2663;53.588;10.010;2023-03-01T07:43:59;13.27;;;5.50;;
5279;SDS011;2663;53.588;10.010;2023-03-01T07:46:26;9.60;;;6.10;;
5279;SDS011;2663;53.588;10.010;2023-03-01T07:48:53;10.67;;;6.47;;
5279;SDS011;2663;53.588;10.010;2023-03-01T07:51:19;11.77;;;6.83;;
5279;SDS011;2663;53.588;10.010;2023-03-01T07:53:47;13.80;;;6.83;;
5279;SDS011;2663;53.588;10.010;2023-03-01T07:56:15;13.63;;;7.77;;
5279;SDS011;2663;53.588;10.010;2023-03-01T07:58:44;10.93;;;6.83;;
5279;SDS011;2663;53.588;10.010;2023-03-01T08:01:15;17.60;;;8.60;;
5279;SDS011;2663;53.588;10.010;2023-03-01T08:03:43;16.87;;;7.20;;
5279;SDS011;2663;53.588;10.010;2023-03-01T08:06:11;20.07;;;8.60;;
5279;SDS011;2663;53.588;10.010;2023-03-01T08:08:39;29.40;;;8.83;;
5279;SDS011;2663;53.588;10.010;2023-03-01T08:11:06;17.00;;;8.00;;
5279;SDS011;2663;53.588;10.010;2023-03-01T08:13:36;13.00;;;8.30;;
5279;SDS011;2663;53.588;10.010;2023-03-01T08:16:03;15.03;;;8.40;;
5279;SDS011;2663;53.588;10.010;2023-03-01T08:18:32;19.97;;;8.80;;
5279;SDS011;2663;53.588;10.010;2023-03-01T08:21:05;16.00;;;9.07;;
5279;SDS011;2663;53.588;10.010;2023-03-01T08:23:42;34.73;;;9.07;;
5279;SDS011;2663;53.588;10.010;2023-03-01T08:26:11;16.30;;;9.03;;
5279;SDS011;2663;53.588;10.010;2023-03-01T08:28:39;13.37;;;8.63;;
5279;SDS011;2663;53.588;10.010;2023-03-01T08:31:14;16.70;;;9.27;;
5279;SDS011;2663;53.588;10.010;2023-03-01T08:33:43;19.17;;;9.20;;
5279;SDS011;2663;53.588;10.010;2023-03-01T08:36:09;11.57;;;8.13;;
5279;SDS011;2663;53.588;10.010;2023-03-01T08:38:36;14.07;;;8.13;;
5279;SDS011;2663;53.588;10.010;2023-03-01T08:41:03;14.17;;;8.90;;
5279;SDS011;2663;53.588;10.010;2023-03-01T08:43:30;13.70;;;8.40;;
5279;SDS011;2663;53.588;10.010;2023-03-01T08:45:57;14.67;;;8.80;;
5279;SDS011;2663;53.588;10.010;2023-03-01T08:48:24;22.07;;;8.93;;
5279;SDS011;2663;53.588;10.010;2023-03-01T08:50:51;17.00;;;8.10;;
5279;SDS011;2663;53.588;10.010;2023-03-01T08:53:18;15.47;;;9.07;;
5279;SDS011;2663;53.588;10.010;2023-03-01T08:55:44;12.37;;;7.93;;
5279;SDS011;2663;53.588;10.010;2023-03-01T08:58:11;16.07;;;8.90;;
5279;SDS011;2663;53.588;10.010;2023-03-01T09:00:38;12.57;;;8.67;;
5279;SDS011;2663;53.588;10.010;2023-03-01T09:03:06;15.17;;;8.10;;
5279;SDS011;2663;53.588;10.010;2023-03-01T09:05:33;26.70;;;10.20;;
5279;SDS011;2663;53.588;10.010;2023-03-01T09:08:00;19.93;;;10.20;;
5279;SDS011;2663;53.588;10.010;2023-03-01T09:10:27;24.77;;;10.40;;
5279;SDS011;2663;53.588;10.010;2023-03-01T09:12:53;17.67;;;10.07;;
5279;SDS011;2663;53.588;10.010;2023-03-01T09:15:20;16.17;;;9.80;;
5279;SDS011;2663;53.588;10.010;2023-03-01T09:17:47;22.40;;;11.27;;
5279;SDS011;2663;53.588;10.010;2023-03-01T09:20:13;22.67;;;10.10;;
5279;SDS011;2663;53.588;10.010;2023-03-01T09:22:40;16.03;;;10.77;;
5279;SDS011;2663;53.588;10.010;2023-03-01T09:25:07;23.20;;;11.40;;
5279;SDS011;2663;53.588;10.010;2023-03-01T09:27:33;15.37;;;10.70;;
5279;SDS011;2663;53.588;10.010;2023-03-01T09:30:00;17.23;;;10.60;;
5279;SDS011;2663;53.588;10.010;2023-03-01T09:32:29;21.10;;;11.47;;
5279;SDS011;2663;53.588;10.010;2023-03-01T09:34:57;26.17;;;10.60;;
5279;SDS011;2663;53.588;10.010;2023-03-01T09:37:31;20.13;;;10.17;;
5279;SDS011;2663;53.588;10.010;2023-03-01T09:39:59;17.03;;;10.00;;
5279;SDS011;2663;53.588;10.010;2023-03-01T09:42:27;18.60;;;10.33;;
5279;SDS011;2663;53.588;10.010;2023-03-01T09:44:58;20.20;;;9.73;;
5279;SDS011;2663;53.588;10.010;2023-03-01T09:47:42;15.70;;;10.20;;
5279;SDS011;2663;53.588;10.010;2023-03-01T09:50:16;20.00;;;9.80;;
5279;SDS011;2663;53.588;10.010;2023-03-01T09:52:46;24.73;;;10.10;;
5279;SDS011;2663;53.588;10.010;2023-03-01T10:01:20;18.73;;;10.20;;
5279;SDS011;2663;53.588;10.010;2023-03-01T10:07:07;17.27;;;9.63;;
5279;SDS011;2663;53.588;10.010;2023-03-01T10:09:48;22.13;;;8.93;;
5279;SDS011;2663;53.588;10.010;2023-03-01T10:12:16;18.73;;;10.53;;
5279;SDS011;2663;53.588;10.010;2023-03-01T10:17:51;15.73;;;8.53;;
5279;SDS011;2663;53.588;10.010;2023-03-01T10:20:46;14.73;;;8.80;;
5279;SDS011;2663;53.588;10.010;2023-03-01T10:23:20;16.67;;;9.30;;
5279;SDS011;2663;53.588;10.010;2023-03-01T10:31:38;22.63;;;10.13;;
5279;SDS011;2663;53.588;10.010;2023-03-01T10:39:53;14.50;;;8.20;;
5279;SDS011;2663;53.588;10.010;2023-03-01T10:42:25;19.43;;;8.50;;
5279;SDS011;2663;53.588;10.010;2023-03-01T10:44:57;12.13;;;7.70;;
5279;SDS011;2663;53.588;10.010;2023-03-01T10:47:40;13.70;;;7.73;;
5279;SDS011;2663;53.588;10.010;2023-03-01T10:50:18;15.10;;;7.57;;
5279;SDS011;2663;53.588;10.010;2023-03-01T10:52:57;12.83;;;8.23;;
5279;SDS011;2663;53.588;10.010;2023-03-01T10:55:35;13.20;;;7.70;;
5279;SDS011;2663;53.588;10.010;2023-03-01T11:00:50;16.50;;;8.33;;
5279;SDS011;2663;53.588;10.010;2023-03-01T11:03:20;13.13;;;7.40;;
5279;SDS011;2663;53.588;10.010;2023-03-01T11:05:54;14.67;;;8.60;;
5279;SDS011;2663;53.588;10.010;2023-03-01T11:08:31;15.30;;;8.70;;
5279;SDS011;2663;53.588;10.010;2023-03-01T11:14:19;10.67;;;7.20;;
5279;SDS011;2663;53.588;10.010;2023-03-01T11:19:27;19.10;;;8.37;;
5279;SDS011;2663;53.588;10.010;2023-03-01T11:22:13;22.53;;;9.73;;
5279;SDS011;2663;53.588;10.010;2023-03-01T11:24:47;18.50;;;8.20;;
5279;SDS011;2663;53.588;10.010;2023-03-01T11:27:35;17.83;;;7.03;;
5279;SDS011;2663;53.588;10.010;2023-03-01T11:32:47;15.17;;;7.93;;
5279;SDS011;2663;53.588;10.010;2023-03-01T11:35:22;12.90;;;6.93;;
5279;SDS011;2663;53.588;10.010;2023-03-01T11:37:55;10.63;;;7.10;;
5279;SDS011;2663;53.588;10.010;2023-03-01T11:40:35;11.77;;;7.40;;
5279;SDS011;2663;53.588;10.010;2023-03-01T11:50:51;14.17;;;5.43;;
5279;SDS011;2663;53.588;10.010;2023-03-01T11:53:27;10.53;;;6.03;;
5279;SDS011;2663;53.588;10.010;2023-03-01T11:56:16;10.33;;;6.30;;
5279;SDS011;2663;53.588;10.010;2023-03-01T12:01:40;12.90;;;5.93;;
5279;SDS011;2663;53.588;10.010;2023-03-01T12:09:36;11.10;;;5.03;;
5279;SDS011;2663;53.588;10.010;2023-03-01T12:20:09;6.20;;;4.10;;
5279;SDS011;2663;53.588;10.010;2023-03-01T12:23:15;8.87;;;4.00;;
5279;SDS011;2663;53.588;10.010;2023-03-01T12:31:32;5.50;;;3.97;;
5279;SDS011;2663;53.588;10.010;2023-03-01T12:37:03;5.33;;;4.07;;
5279;SDS011;2663;53.588;10.010;2023-03-01T12:42:54;8.37;;;4.50;;
5279;SDS011;2663;53.588;10.010;2023-03-01T12:50:59;6.97;;;4.13;;
5279;SDS011;2663;53.588;10.010;2023-03-01T12:53:41;7.43;;;4.70;;
5279;SDS011;2663;53.588;10.010;2023-03-01T12:56:11;11.07;;;7.30;;
5279;SDS011;2663;53.588;10.010;2023-03-01T13:04:17;9.07;;;5.03;;
5279;SDS011;2663;53.588;10.010;2023-03-01T13:07:07;9.03;;;5.37;;
5279;SDS011;2663;53.588;10.010;2023-03-01T13:10:01;8.37;;;5.23;;
5279;SDS011;2663;53.588;10.010;2023-03-01T13:17:49;7.97;;;5.70;;
5279;SDS011;2663;53.588;10.010;2023-03-01T13:20:21;8.10;;;5.10;;
5279;SDS011;2663;53.588;10.010;2023-03-01T13:26:00;10.73;;;6.33;;
5279;SDS011;2663;53.588;10.010;2023-03-01T13:28:39;10.33;;;6.73;;
5279;SDS011;2663;53.588;10.010;2023-03-01T13:31:10;14.83;;;6.10;;
5279;SDS011;2663;53.588;10.010;2023-03-01T13:34:01;11.23;;;5.97;;
5279;SDS011;2663;53.588;10.010;2023-03-01T13:39:03;7.90;;;5.80;;
5279;SDS011;2663;53.588;10.010;2023-03-01T13:41:53;6.83;;;4.93;;
5279;SDS011;2663;53.588;10.010;2023-03-01T13:44:37;9.20;;;5.20;;
5279;SDS011;2663;53.588;10.010;2023-03-01T13:49:43;6.10;;;4.20;;
5279;SDS011;2663;53.588;10.010;2023-03-01T13:52:59;7.47;;;4.80;;
5279;SDS011;2663;53.588;10.010;2023-03-01T13:58:19;7.33;;;4.53;;
5279;SDS011;2663;53.588;10.010;2023-03-01T14:01:03;6.73;;;4.37;;
5279;SDS011;2663;53.588;10.010;2023-03-01T14:03:32;7.03;;;5.10;;
5279;SDS011;2663;53.588;10.010;2023-03-01T14:08:42;7.30;;;4.63;;
5279;SDS011;2663;53.588;10.010;2023-03-01T14:22:05;6.80;;;3.97;;
5279;SDS011;2663;53.588;10.010;2023-03-01T14:24:52;4.73;;;3.63;;
5279;SDS011;2663;53.588;10.010;2023-03-01T14:27:30;5.77;;;4.23;;
5279;SDS011;2663;53.588;10.010;2023-03-01T14:30:02;10.03;;;4.50;;
5279;SDS011;2663;53.588;10.010;2023-03-01T14:32:36;7.53;;;4.27;;
5279;SDS011;2663;53.588;10.010;2023-03-01T14:35:19;8.70;;;3.80;;
5279;SDS011;2663;53.588;10.010;2023-03-01T14:37:51;8.20;;;4.90;;
5279;SDS011;2663;53.588;10.010;2023-03-01T14:40:22;9.80;;;4.87;;
5279;SDS011;2663;53.588;10.010;2023-03-01T14:42:54;8.90;;;4.60;;
5279;SDS011;2663;53.588;10.010;2023-03-01T14:45:24;6.20;;;4.43;;
5279;SDS011;2663;53.588;10.010;2023-03-01T14:47:53;6.90;;;3.93;;
5279;SDS011;2663;53.588;10.010;2023-03-01T14:50:23;8.27;;;3.90;;
5279;SDS011;2663;53.588;10.010;2023-03-01T14:52:54;6.10;;;4.40;;
5279;SDS011;2663;53.588;10.010;2023-03-01T14:55:32;5.10;;;4.30;;
5279;SDS011;2663;53.588;10.010;2023-03-01T14:58:05;6.80;;;4.30;;
5279;SDS011;2663;53.588;10.010;2023-03-01T15:00:35;9.10;;;4.60;;
5279;SDS011;2663;53.588;10.010;2023-03-01T15:03:13;7.30;;;4.63;;
5279;SDS011;2663;53.588;10.010;2023-03-01T15:05:50;13.60;;;4.70;;
5279;SDS011;2663;53.588;10.010;2023-03-01T15:08:19;7.17;;;4.40;;
5279;SDS011;2663;53.588;10.010;2023-03-01T15:11:01;10.43;;;5.07;;
5279;SDS011;2663;53.588;10.010;2023-03-01T15:13:51;28.53;;;5.50;;
5279;SDS011;2663;53.588;10.010;2023-03-01T15:19:02;6.93;;;4.30;;
5279;SDS011;2663;53.588;10.010;2023-03-01T15:21:32;5.87;;;4.37;;
5279;SDS011;2663;53.588;10.010;2023-03-01T15:24:06;8.70;;;5.60;;
5279;SDS011;2663;53.588;10.010;2023-03-01T15:26:40;8.53;;;5.10;;
5279;SDS011;2663;53.588;10.010;2023-03-01T15:29:18;13.23;;;5.80;;
5279;SDS011;2663;53.588;10.010;2023-03-01T15:31:59;9.37;;;5.90;;
5279;SDS011;2663;53.588;10.010;2023-03-01T15:34:30;10.40;;;6.00;;
5279;SDS011;2663;53.588;10.010;2023-03-01T15:37:00;6.87;;;4.90;;
5279;SDS011;2663;53.588;10.010;2023-03-01T15:47:39;8.37;;;6.30;;
5279;SDS011;2663;53.588;10.010;2023-03-01T15:50:22;6.93;;;4.83;;
5279;SDS011;2663;53.588;10.010;2023-03-01T15:52:53;9.07;;;4.87;;
5279;SDS011;2663;53.588;10.010;2023-03-01T15:55:22;6.33;;;4.60;;
5279;SDS011;2663;53.588;10.010;2023-03-01T15:57:49;6.17;;;4.20;;
5279;SDS011;2663;53.588;10.010;2023-03-01T16:00:16;15.00;;;4.33;;
5279;SDS011;2663;53.588;10.010;2023-03-01T16:02:44;5.20;;;3.77;;
5279;SDS011;2663;53.588;10.010;2023-03-01T16:05:15;8.37;;;3.63;;
5279;SDS011;2663;53.588;10.010;2023-03-01T16:07:54;4.70;;;3.70;;
5279;SDS011;2663;53.588;10.010;2023-03-01T16:10:20;5.20;;;3.70;;
5279;SDS011;2663;53.588;10.010;2023-03-01T16:12:47;7.33;;;4.00;;
5279;SDS011;2663;53.588;10.010;2023-03-01T16:15:18;4.80;;;3.07;;
5279;SDS011;2663;53.588;10.010;2023-03-01T16:17:48;5.43;;;3.83;;
5279;SDS011;2663;53.588;10.010;2023-03-01T16:20:15;6.60;;;4.23;;
5279;SDS011;2663;53.588;10.010;2023-03-01T16:22:52;7.17;;;4.00;;
5279;SDS011;2663;53.588;10.010;2023-03-01T16:25:20;6.47;;;3.67;;
5279;SDS011;2663;53.588;10.010;2023-03-01T16:27:48;9.00;;;4.43;;
5279;SDS011;2663;53.588;10.010;2023-03-01T16:30:17;5.20;;;4.30;;
5279;SDS011;2663;53.588;10.010;2023-03-01T16:32:46;11.43;;;5.20;;
5279;SDS011;2663;53.588;10.010;2023-03-01T16:35:14;8.13;;;5.30;;
5279;SDS011;2663;53.588;10.010;2023-03-01T16:37:43;8.57;;;4.93;;
5279;SDS011;2663;53.588;10.010;2023-03-01T16:40:18;10.70;;;6.27;;
5279;SDS011;2663;53.588;10.010;2023-03-01T16:42:47;12.17;;;6.43;;
5279;SDS011;2663;53.588;10.010;2023-03-01T16:45:14;11.20;;;6.87;;
5279;SDS011;2663;53.588;10.010;2023-03-01T16:47:50;12.77;;;6.90;;
5279;SDS011;2663;53.588;10.010;2023-03-01T16:50:21;15.47;;;7.27;;
5279;SDS011;2663;53.588;10.010;2023-03-01T16:52:48;15.50;;;7.90;;
5279;SDS011;2663;53.588;10.010;2023-03-01T16:55:14;12.40;;;8.07;;
5279;SDS011;2663;53.588;10.010;2023-03-01T16:57:41;14.40;;;8.00;;
5279;SDS011;2663;53.588;10.010;2023-03-01T17:00:08;14.20;;;8.20;;
5279;SDS011;2663;53.588;10.010;2023-03-01T17:02:39;12.60;;;7.40;;
5279;SDS011;2663;53.588;10.010;2023-03-01T17:05:07;13.83;;;8.00;;
5279;SDS011;2663;53.588;10.010;2023-03-01T17:11:42;13.30;;;7.73;;
5279;SDS011;2663;53.588;10.010;2023-03-01T17:14:09;11.40;;;7.17;;
5279;SDS011;2663;53.588;10.010;2023-03-01T17:16:35;12.63;;;6.40;;
5279;SDS011;2663;53.588;10.010;2023-03-01T17:19:03;9.60;;;6.47;;
5279;SDS011;2663;53.588;10.010;2023-03-01T17:21:30;11.23;;;7.10;;
5279;SDS011;2663;53.588;10.010;2023-03-01T17:23:57;9.97;;;6.63;;
5279;SDS011;2663;53.588;10.010;2023-03-01T17:26:24;10.70;;;6.67;;
5279;SDS011;2663;53.588;10.010;2023-03-01T17:28:51;10.13;;;6.23;;
5279;SDS011;2663;53.588;10.010;2023-03-01T17:31:18;7.80;;;5.67;;